sensor_id;sensor_type;location;lat;lon;timestamp;temperature;humidity
38237;DHT22;50101;49.438;11.098;2023-02-28T00:00:35;18.60;48.40
38237;DHT22;50101;49.438;11.098;2023-02-28T00:03:02;18.60;48.40
38237;DHT22;50101;49.438;11.098;2023-02-28T00:05:29;18.60;48.50
38237;DHT22;50101;49.438;11.098;2023-02-28T00:07:56;18.60;47.90
38237;DHT22;50101;49.438;11.098;2023-02-28T00:10:25;18.60;48.40
38237;DHT22;50101;49.438;11.098;2023-02-28T00:12:54;18.60;48.40
38237;DHT22;50101;49.438;11.098;2023-02-28T00:15:23;18.60;48.40
38237;DHT22;50101;49.438;11.098;2023-02-28T00:17:50;18.60;48.40
38237;DHT22;50101;49.438;11.098;2023-02-28T00:20:17;18.50;48.30
38237;DHT22;50101;49.438;11.098;2023-02-28T00:22:46;18.50;48.30
38237;DHT22;50101;49.438;11.098;2023-02-28T00:25:16;18.50;48.30
38237;DHT22;50101;49.438;11.098;2023-02-28T00:27:44;18.50;48.30
38237;DHT22;50101;49.438;11.098;2023-02-28T00:30:14;18.50;48.30
38237;DHT22;50101;49.438;11.098;2023-02-28T00:32:41;18.50;48.30
38237;DHT22;50101;49.438;11.098;2023-02-28T00:35:09;18.50;48.30
38237;DHT22;50101;49.438;11.098;2023-02-28T00:37:36;18.50;48.30
38237;DHT22;50101;49.438;11.098;2023-02-28T00:40:04;18.50;48.30
38237;DHT22;50101;49.438;11.098;2023-02-28T00:42:34;18.50;48.30
38237;DHT22;50101;49.438;11.098;2023-02-28T00:45:02;18.50;48.30
38237;DHT22;50101;49.438;11.098;2023-02-28T00:47:31;18.50;48.30
38237;DHT22;50101;49.438;11.098;2023-02-28T00:49:58;18.50;48.40
38237;DHT22;50101;49.438;11.098;2023-02-28T00:52:25;18.50;48.40
38237;DHT22;50101;49.438;11.098;2023-02-28T00:54:52;18.40;48.30
38237;DHT22;50101;49.438;11.098;2023-02-28T00:57:18;18.40;48.30
38237;DHT22;50101;49.438;11.098;2023-02-28T00:59:45;18.40;48.30
38237;DHT22;50101;49.438;11.098;2023-02-28T01:02:11;18.40;48.30
38237;DHT22;50101;49.438;11.098;2023-02-28T01:04:38;18.40;48.20
38237;DHT22;50101;49.438;11.098;2023-02-28T01:07:05;18.40;48.30
38237;DHT22;50101;49.438;11.098;2023-02-28T01:09:31;18.40;48.20
38237;DHT22;50101;49.438;11.098;2023-02-28T01:11:58;18.40;48.20
38237;DHT22;50101;49.438;11.098;2023-02-28T01:14:25;18.40;48.20
38237;DHT22;50101;49.438;11.098;2023-02-28T01:16:51;18.40;48.20
38237;DHT22;50101;49.438;11.098;2023-02-28T01:19:18;18.40;48.20
38237;DHT22;50101;49.438;11.098;2023-02-28T01:21:45;18.40;48.20
38237;DHT22;50101;49.438;11.098;2023-02-28T01:24:11;18.40;48.80
38237;DHT22;50101;49.438;11.098;2023-02-28T01:26:38;18.40;48.20
38237;DHT22;50101;49.438;11.098;2023-02-28T01:29:04;18.40;48.20
38237;DHT22;50101;49.438;11.098;2023-02-28T01:31:31;18.40;48.30
38237;DHT22;50101;49.438;11.098;2023-02-28T01:33:58;18.30;48.10
38237;DHT22;50101;49.438;11.098;2023-02-28T01:36:25;18.40;48.20
38237;DHT22;50101;49.438;11.098;2023-02-28T01:38:53;18.40;48.20
38237;DHT22;50101;49.438;11.098;2023-02-28T01:46:15;18.30;48.10
38237;DHT22;50101;49.438;11.098;2023-02-28T01:48:45;18.30;48.10
38237;DHT22;50101;49.438;11.098;2023-02-28T01:51:16;18.30;48.10
38237;DHT22;50101;49.438;11.098;2023-02-28T01:53:49;18.30;48.10
38237;DHT22;50101;49.438;11.098;2023-02-28T01:56:20;18.30;48.10
38237;DHT22;50101;49.438;11.098;2023-02-28T01:58:50;18.30;48.10
38237;DHT22;50101;49.438;11.098;2023-02-28T02:01:20;18.30;48.10
38237;DHT22;50101;49.438;11.098;2023-02-28T02:03:56;18.30;48.40
38237;DHT22;50101;49.438;11.098;2023-02-28T02:06:40;18.30;48.10
38237;DHT22;50101;49.438;11.098;2023-02-28T02:09:08;18.30;48.40
38237;DHT22;50101;49.438;11.098;2023-02-28T02:11:36;18.30;48.10
38237;DHT22;50101;49.438;11.098;2023-02-28T02:25:26;18.30;48.20
38237;DHT22;50101;49.438;11.098;2023-02-28T02:34:08;18.20;48.10
38237;DHT22;50101;49.438;11.098;2023-02-28T02:36:52;18.30;48.80
38237;DHT22;50101;49.438;11.098;2023-02-28T02:39:32;18.20;48.10
38237;DHT22;50101;49.438;11.098;2023-02-28T02:42:11;18.20;48.10
38237;DHT22;50101;49.438;11.098;2023-02-28T02:44:44;18.20;48.10
38237;DHT22;50101;49.438;11.098;2023-02-28T02:47:16;18.20;48.10
38237;DHT22;50101;49.438;11.098;2023-02-28T02:49:49;18.20;48.10
38237;DHT22;50101;49.438;11.098;2023-02-28T02:52:32;18.20;48.10
38237;DHT22;50101;49.438;11.098;2023-02-28T02:55:02;18.20;48.10
38237;DHT22;50101;49.438;11.098;2023-02-28T02:57:46;18.20;48.20
38237;DHT22;50101;49.438;11.098;2023-02-28T03:00:16;18.20;47.60
38237;DHT22;50101;49.438;11.098;2023-02-28T03:02:45;18.20;48.20
38237;DHT22;50101;49.438;11.098;2023-02-28T03:05:29;18.20;48.20
38237;DHT22;50101;49.438;11.098;2023-02-28T03:07:57;18.20;48.20
38237;DHT22;50101;49.438;11.098;2023-02-28T03:10:37;18.20;48.20
38237;DHT22;50101;49.438;11.098;2023-02-28T03:19:31;18.20;47.70
38237;DHT22;50101;49.438;11.098;2023-02-28T03:28:14;18.20;48.30
38237;DHT22;50101;49.438;11.098;2023-02-28T03:30:52;18.20;48.30
38237;DHT22;50101;49.438;11.098;2023-02-28T03:33:28;18.20;48.20
38237;DHT22;50101;49.438;11.098;2023-02-28T03:36:03;18.20;48.20
38237;DHT22;50101;49.438;11.098;2023-02-28T03:38:33;18.20;48.20
38237;DHT22;50101;49.438;11.098;2023-02-28T03:41:06;18.20;48.20
38237;DHT22;50101;49.438;11.098;2023-02-28T03:43:38;18.20;48.20
38237;DHT22;50101;49.438;11.098;2023-02-28T03:46:10;18.20;48.10
38237;DHT22;50101;49.438;11.098;2023-02-28T03:48:50;18.20;48.10
38237;DHT22;50101;49.438;11.098;2023-02-28T03:51:19;18.20;48.10
38237;DHT22;50101;49.438;11.098;2023-02-28T03:53:59;18.20;48.10
38237;DHT22;50101;49.438;11.098;2023-02-28T03:59:05;18.20;48.00
38237;DHT22;50101;49.438;11.098;2023-02-28T04:01:42;18.20;48.00
38237;DHT22;50101;49.438;11.098;2023-02-28T04:04:10;18.20;48.00
38237;DHT22;50101;49.438;11.098;2023-02-28T04:06:38;18.20;48.00
38237;DHT22;50101;49.438;11.098;2023-02-28T04:09:07;18.20;48.00
38237;DHT22;50101;49.438;11.098;2023-02-28T04:11:49;18.20;47.90
38237;DHT22;50101;49.438;11.098;2023-02-28T04:14:18;18.30;48.00
38237;DHT22;50101;49.438;11.098;2023-02-28T04:16:45;18.30;48.00
38237;DHT22;50101;49.438;11.098;2023-02-28T04:19:12;18.30;47.50
38237;DHT22;50101;49.438;11.098;2023-02-28T04:21:44;18.30;48.00
38237;DHT22;50101;49.438;11.098;2023-02-28T04:24:16;18.30;48.00
38237;DHT22;50101;49.438;11.098;2023-02-28T04:26:45;18.30;47.90
38237;DHT22;50101;49.438;11.098;2023-02-28T04:29:14;18.30;47.90
38237;DHT22;50101;49.438;11.098;2023-02-28T04:31:44;18.30;47.90
38237;DHT22;50101;49.438;11.098;2023-02-28T04:34:11;18.30;47.90
38237;DHT22;50101;49.438;11.098;2023-02-28T04:36:38;18.30;47.90
38237;DHT22;50101;49.438;11.098;2023-02-28T04:39:04;18.30;47.80
38237;DHT22;50101;49.438;11.098;2023-02-28T04:41:31;18.30;47.80
38237;DHT22;50101;49.438;11.098;2023-02-28T04:43:58;18.30;47.80
38237;DHT22;50101;49.438;11.098;2023-02-28T04:46:25;18.30;47.80
38237;DHT22;50101;49.438;11.098;2023-02-28T04:48:52;18.30;47.80
38237;DHT22;50101;49.438;11.098;2023-02-28T04:51:20;18.30;47.70
38237;DHT22;50101;49.438;11.098;2023-02-28T04:53:48;18.30;47.80
38237;DHT22;50101;49.438;11.098;2023-02-28T04:56:16;18.40;47.80
38237;DHT22;50101;49.438;11.098;2023-02-28T04:58:43;17.70;40.60
38237;DHT22;50101;49.438;11.098;2023-02-28T05:01:25;14.80;35.80
38237;DHT22;50101;49.438;11.098;2023-02-28T05:03:53;15.10;41.70
38237;DHT22;50101;49.438;11.098;2023-02-28T05:06:22;16.20;43.60
38237;DHT22;50101;49.438;11.098;2023-02-28T05:08:50;16.90;44.00
38237;DHT22;50101;49.438;11.098;2023-02-28T05:11:26;17.40;43.90
38237;DHT22;50101;49.438;11.098;2023-02-28T05:13:54;17.80;44.00
38237;DHT22;50101;49.438;11.098;2023-02-28T05:16:21;18.00;44.10
38237;DHT22;50101;49.438;11.098;2023-02-28T05:18:48;18.10;43.80
38237;DHT22;50101;49.438;11.098;2023-02-28T05:23:51;18.30;44.70
38237;DHT22;50101;49.438;11.098;2023-02-28T05:26:18;18.30;45.00
38237;DHT22;50101;49.438;11.098;2023-02-28T05:28:45;18.30;45.20
38237;DHT22;50101;49.438;11.098;2023-02-28T05:31:12;18.40;45.30
38237;DHT22;50101;49.438;11.098;2023-02-28T05:33:39;18.40;45.60
38237;DHT22;50101;49.438;11.098;2023-02-28T05:36:06;18.50;45.90
38237;DHT22;50101;49.438;11.098;2023-02-28T05:38:33;18.50;46.40
38237;DHT22;50101;49.438;11.098;2023-02-28T05:41:10;18.60;46.40
38237;DHT22;50101;49.438;11.098;2023-02-28T05:43:38;18.60;46.90
38237;DHT22;50101;49.438;11.098;2023-02-28T05:46:06;18.70;47.30
38237;DHT22;50101;49.438;11.098;2023-02-28T05:48:34;18.70;47.10
38237;DHT22;50101;49.438;11.098;2023-02-28T05:51:02;18.80;47.60
38237;DHT22;50101;49.438;11.098;2023-02-28T05:53:30;18.80;47.90
38237;DHT22;50101;49.438;11.098;2023-02-28T05:55:57;18.80;48.20
38237;DHT22;50101;49.438;11.098;2023-02-28T05:58:24;19.00;47.80
38237;DHT22;50101;49.438;11.098;2023-02-28T06:01:00;19.00;48.40
38237;DHT22;50101;49.438;11.098;2023-02-28T06:03:27;19.00;48.50
38237;DHT22;50101;49.438;11.098;2023-02-28T06:05:54;19.00;48.60
38237;DHT22;50101;49.438;11.098;2023-02-28T06:08:21;19.00;48.90
38237;DHT22;50101;49.438;11.098;2023-02-28T06:10:47;18.90;48.80
38237;DHT22;50101;49.438;11.098;2023-02-28T06:13:14;18.90;48.60
38237;DHT22;50101;49.438;11.098;2023-02-28T06:15:41;18.90;48.30
38237;DHT22;50101;49.438;11.098;2023-02-28T06:18:08;18.90;48.40
38237;DHT22;50101;49.438;11.098;2023-02-28T06:20:35;18.80;48.10
38237;DHT22;50101;49.438;11.098;2023-02-28T06:23:02;18.80;48.00
38237;DHT22;50101;49.438;11.098;2023-02-28T06:25:29;18.80;48.10
38237;DHT22;50101;49.438;11.098;2023-02-28T06:27:56;18.80;47.40
38237;DHT22;50101;49.438;11.098;2023-02-28T06:30:23;18.90;48.00
38237;DHT22;50101;49.438;11.098;2023-02-28T06:32:53;18.80;47.90
38237;DHT22;50101;49.438;11.098;2023-02-28T06:35:21;18.90;47.70
38237;DHT22;50101;49.438;11.098;2023-02-28T06:37:47;18.90;47.60
38237;DHT22;50101;49.438;11.098;2023-02-28T06:40:14;19.00;47.60
38237;DHT22;50101;49.438;11.098;2023-02-28T06:42:41;19.00;47.40
38237;DHT22;50101;49.438;11.098;2023-02-28T06:45:09;19.00;47.50
38237;DHT22;50101;49.438;11.098;2023-02-28T06:47:38;19.00;46.90
38237;DHT22;50101;49.438;11.098;2023-02-28T06:50:06;19.00;47.40
38237;DHT22;50101;49.438;11.098;2023-02-28T06:52:33;19.00;47.30
38237;DHT22;50101;49.438;11.098;2023-02-28T06:55:04;19.10;47.30
38237;DHT22;50101;49.438;11.098;2023-02-28T06:57:31;19.10;47.30
38237;DHT22;50101;49.438;11.098;2023-02-28T06:59:59;19.10;47.30
38237;DHT22;50101;49.438;11.098;2023-02-28T07:02:27;19.10;47.30
38237;DHT22;50101;49.438;11.098;2023-02-28T07:04:54;19.10;47.30
38237;DHT22;50101;49.438;11.098;2023-02-28T07:07:20;19.10;47.30
38237;DHT22;50101;49.438;11.098;2023-02-28T07:09:47;19.10;46.80
38237;DHT22;50101;49.438;11.098;2023-02-28T07:12:14;19.10;47.30
38237;DHT22;50101;49.438;11.098;2023-02-28T07:14:40;19.10;47.30
38237;DHT22;50101;49.438;11.098;2023-02-28T07:17:11;19.20;47.40
38237;DHT22;50101;49.438;11.098;2023-02-28T07:19:39;19.20;47.40
38237;DHT22;50101;49.438;11.098;2023-02-28T07:22:06;19.20;47.40
38237;DHT22;50101;49.438;11.098;2023-02-28T07:24:33;19.20;47.40
38237;DHT22;50101;49.438;11.098;2023-02-28T07:27:00;19.20;47.40
38237;DHT22;50101;49.438;11.098;2023-02-28T07:29:28;19.30;47.50
38237;DHT22;50101;49.438;11.098;2023-02-28T07:31:55;19.30;47.50
38237;DHT22;50101;49.438;11.098;2023-02-28T07:34:22;19.30;47.30
38237;DHT22;50101;49.438;11.098;2023-02-28T07:36:51;19.30;47.40
38237;DHT22;50101;49.438;11.098;2023-02-28T07:39:21;19.20;46.90
38237;DHT22;50101;49.438;11.098;2023-02-28T07:41:48;19.30;47.30
38237;DHT22;50101;49.438;11.098;2023-02-28T07:44:14;19.30;47.20
38237;DHT22;50101;49.438;11.098;2023-02-28T07:46:41;19.30;47.20
38237;DHT22;50101;49.438;11.098;2023-02-28T07:49:08;19.30;46.60
38237;DHT22;50101;49.438;11.098;2023-02-28T07:51:35;19.30;47.10
38237;DHT22;50101;49.438;11.098;2023-02-28T07:54:02;19.30;47.00
38237;DHT22;50101;49.438;11.098;2023-02-28T07:56:29;19.40;47.00
38237;DHT22;50101;49.438;11.098;2023-02-28T07:58:56;19.40;46.50
38237;DHT22;50101;49.438;11.098;2023-02-28T08:01:23;19.40;47.00
38237;DHT22;50101;49.438;11.098;2023-02-28T08:03:49;19.40;47.10
38237;DHT22;50101;49.438;11.098;2023-02-28T08:06:19;19.40;46.90
38237;DHT22;50101;49.438;11.098;2023-02-28T08:08:47;19.40;46.40
38237;DHT22;50101;49.438;11.098;2023-02-28T08:11:15;19.50;46.90
38237;DHT22;50101;49.438;11.098;2023-02-28T08:13:43;19.50;46.70
38237;DHT22;50101;49.438;11.098;2023-02-28T08:16:11;19.50;46.70
38237;DHT22;50101;49.438;11.098;2023-02-28T08:18:38;19.50;46.20
38237;DHT22;50101;49.438;11.098;2023-02-28T08:21:09;19.50;46.80
38237;DHT22;50101;49.438;11.098;2023-02-28T08:23:36;19.60;46.80
38237;DHT22;50101;49.438;11.098;2023-02-28T08:26:03;19.60;46.80
38237;DHT22;50101;49.438;11.098;2023-02-28T08:28:30;19.50;46.70
38237;DHT22;50101;49.438;11.098;2023-02-28T08:30:58;19.60;46.70
38237;DHT22;50101;49.438;11.098;2023-02-28T08:33:26;19.70;46.70
38237;DHT22;50101;49.438;11.098;2023-02-28T08:35:56;19.70;46.70
38237;DHT22;50101;49.438;11.098;2023-02-28T08:38:23;19.60;46.20
38237;DHT22;50101;49.438;11.098;2023-02-28T08:40:54;19.70;46.80
38237;DHT22;50101;49.438;11.098;2023-02-28T08:43:23;19.70;46.70
38237;DHT22;50101;49.438;11.098;2023-02-28T08:45:52;19.70;46.60
38237;DHT22;50101;49.438;11.098;2023-02-28T08:48:18;19.70;46.80
38237;DHT22;50101;49.438;11.098;2023-02-28T08:51:01;19.70;46.90
38237;DHT22;50101;49.438;11.098;2023-02-28T08:53:33;19.70;46.90
38237;DHT22;50101;49.438;11.098;2023-02-28T08:56:03;19.70;47.00
38237;DHT22;50101;49.438;11.098;2023-02-28T08:58:30;19.70;47.00
38237;DHT22;50101;49.438;11.098;2023-02-28T09:00:57;19.70;47.00
38237;DHT22;50101;49.438;11.098;2023-02-28T09:03:24;19.70;47.00
38237;DHT22;50101;49.438;11.098;2023-02-28T09:05:59;19.70;47.00
38237;DHT22;50101;49.438;11.098;2023-02-28T09:08:28;19.70;46.90
38237;DHT22;50101;49.438;11.098;2023-02-28T09:10:55;19.70;47.00
38237;DHT22;50101;49.438;11.098;2023-02-28T09:13:25;19.70;47.10
38237;DHT22;50101;49.438;11.098;2023-02-28T09:15:53;19.70;47.20
38237;DHT22;50101;49.438;11.098;2023-02-28T09:18:20;19.70;47.20
38237;DHT22;50101;49.438;11.098;2023-02-28T09:20:47;19.70;46.60
38237;DHT22;50101;49.438;11.098;2023-02-28T09:23:13;19.70;47.20
38237;DHT22;50101;49.438;11.098;2023-02-28T09:25:48;19.70;47.10
38237;DHT22;50101;49.438;11.098;2023-02-28T09:28:15;19.70;46.70
38237;DHT22;50101;49.438;11.098;2023-02-28T09:30:48;19.70;47.20
38237;DHT22;50101;49.438;11.098;2023-02-28T09:33:15;19.70;47.20
38237;DHT22;50101;49.438;11.098;2023-02-28T09:35:42;19.70;47.30
38237;DHT22;50101;49.438;11.098;2023-02-28T09:38:10;19.80;47.30
38237;DHT22;50101;49.438;11.098;2023-02-28T09:41:01;19.80;47.30
38237;DHT22;50101;49.438;11.098;2023-02-28T09:43:29;19.70;47.40
38237;DHT22;50101;49.438;11.098;2023-02-28T09:48:53;19.70;47.40
38237;DHT22;50101;49.438;11.098;2023-02-28T09:51:33;19.70;47.50
38237;DHT22;50101;49.438;11.098;2023-02-28T09:54:02;19.70;47.40
38237;DHT22;50101;49.438;11.098;2023-02-28T09:56:39;19.80;47.50
38237;DHT22;50101;49.438;11.098;2023-02-28T10:07:10;19.80;47.50
38237;DHT22;50101;49.438;11.098;2023-02-28T10:09:45;19.70;47.50
38237;DHT22;50101;49.438;11.098;2023-02-28T10:12:14;19.70;47.50
38237;DHT22;50101;49.438;11.098;2023-02-28T10:14:46;19.80;47.60
38237;DHT22;50101;49.438;11.098;2023-02-28T10:17:23;19.80;47.50
38237;DHT22;50101;49.438;11.098;2023-02-28T10:20:05;19.80;47.50
38237;DHT22;50101;49.438;11.098;2023-02-28T10:22:38;19.80;47.50
38237;DHT22;50101;49.438;11.098;2023-02-28T10:25:22;19.70;47.40
38237;DHT22;50101;49.438;11.098;2023-02-28T10:27:50;19.70;47.40
38237;DHT22;50101;49.438;11.098;2023-02-28T10:30:19;19.80;47.40
38237;DHT22;50101;49.438;11.098;2023-02-28T10:32:50;19.80;47.30
38237;DHT22;50101;49.438;11.098;2023-02-28T10:35:25;19.80;47.30
38237;DHT22;50101;49.438;11.098;2023-02-28T10:37:59;19.80;47.30
38237;DHT22;50101;49.438;11.098;2023-02-28T10:40:34;19.80;47.30
38237;DHT22;50101;49.438;11.098;2023-02-28T10:45:30;19.80;47.40
38237;DHT22;50101;49.438;11.098;2023-02-28T10:48:26;19.80;47.40
38237;DHT22;50101;49.438;11.098;2023-02-28T10:50:54;19.90;47.40
38237;DHT22;50101;49.438;11.098;2023-02-28T11:00:57;19.90;47.40
38237;DHT22;50101;49.438;11.098;2023-02-28T11:03:30;19.90;47.40
38237;DHT22;50101;49.438;11.098;2023-02-28T11:05:57;19.90;47.40
38237;DHT22;50101;49.438;11.098;2023-02-28T11:08:24;19.90;47.50
38237;DHT22;50101;49.438;11.098;2023-02-28T11:10:59;19.90;47.50
38237;DHT22;50101;49.438;11.098;2023-02-28T11:13:33;20.00;47.50
38237;DHT22;50101;49.438;11.098;2023-02-28T11:16:07;19.90;47.40
38237;DHT22;50101;49.438;11.098;2023-02-28T11:18:41;20.00;47.50
38237;DHT22;50101;49.438;11.098;2023-02-28T11:21:10;19.50;47.10
38237;DHT22;50101;49.438;11.098;2023-02-28T11:23:41;19.90;47.50
38237;DHT22;50101;49.438;11.098;2023-02-28T11:26:08;19.90;47.50
38237;DHT22;50101;49.438;11.098;2023-02-28T11:28:41;19.90;47.60
38237;DHT22;50101;49.438;11.098;2023-02-28T11:31:16;19.90;47.40
38237;DHT22;50101;49.438;11.098;2023-02-28T11:33:47;20.00;47.50
38237;DHT22;50101;49.438;11.098;2023-02-28T11:36:24;20.00;47.60
38237;DHT22;50101;49.438;11.098;2023-02-28T11:39:04;20.00;47.50
38237;DHT22;50101;49.438;11.098;2023-02-28T11:44:28;20.00;47.40
38237;DHT22;50101;49.438;11.098;2023-02-28T11:47:19;20.00;47.40
38237;DHT22;50101;49.438;11.098;2023-02-28T11:52:53;20.00;47.50
38237;DHT22;50101;49.438;11.098;2023-02-28T11:55:36;20.00;47.40
38237;DHT22;50101;49.438;11.098;2023-02-28T12:03:30;20.10;47.50
38237;DHT22;50101;49.438;11.098;2023-02-28T12:06:18;20.00;47.50
38237;DHT22;50101;49.438;11.098;2023-02-28T12:11:56;20.10;47.50
38237;DHT22;50101;49.438;11.098;2023-02-28T12:15:04;20.10;47.50
38237;DHT22;50101;49.438;11.098;2023-02-28T12:17:50;20.10;47.50
38237;DHT22;50101;49.438;11.098;2023-02-28T12:23:34;20.10;47.50
38237;DHT22;50101;49.438;11.098;2023-02-28T12:26:09;20.10;47.50
38237;DHT22;50101;49.438;11.098;2023-02-28T12:28:46;20.10;47.60
38237;DHT22;50101;49.438;11.098;2023-02-28T12:31:28;20.10;47.60
38237;DHT22;50101;49.438;11.098;2023-02-28T12:34:03;20.10;47.50
38237;DHT22;50101;49.438;11.098;2023-02-28T12:36:30;20.10;47.50
38237;DHT22;50101;49.438;11.098;2023-02-28T12:39:10;20.10;47.60
38237;DHT22;50101;49.438;11.098;2023-02-28T12:41:46;20.10;47.60
38237;DHT22;50101;49.438;11.098;2023-02-28T12:46:48;20.10;47.60
38237;DHT22;50101;49.438;11.098;2023-02-28T12:49:26;20.10;47.60
38237;DHT22;50101;49.438;11.098;2023-02-28T12:51:57;20.20;47.60
38237;DHT22;50101;49.438;11.098;2023-02-28T12:54:31;20.20;47.60
38237;DHT22;50101;49.438;11.098;2023-02-28T13:00:13;20.20;47.60
38237;DHT22;50101;49.438;11.098;2023-02-28T13:02:44;20.20;47.60
38237;DHT22;50101;49.438;11.098;2023-02-28T13:10:57;20.30;47.70
38237;DHT22;50101;49.438;11.098;2023-02-28T13:13:26;20.30;47.80
38237;DHT22;50101;49.438;11.098;2023-02-28T13:16:09;20.30;47.70
38237;DHT22;50101;49.438;11.098;2023-02-28T13:18:43;20.30;47.20
38237;DHT22;50101;49.438;11.098;2023-02-28T13:21:29;20.30;47.70
38237;DHT22;50101;49.438;11.098;2023-02-28T13:24:04;20.30;47.70
38237;DHT22;50101;49.438;11.098;2023-02-28T13:34:40;20.40;47.60
38237;DHT22;50101;49.438;11.098;2023-02-28T13:39:56;20.40;47.60
38237;DHT22;50101;49.438;11.098;2023-02-28T13:42:46;20.30;47.70
38237;DHT22;50101;49.438;11.098;2023-02-28T13:50:19;20.40;47.20
38237;DHT22;50101;49.438;11.098;2023-02-28T13:58:48;20.40;47.70
38237;DHT22;50101;49.438;11.098;2023-02-28T14:06:24;20.40;47.70
38237;DHT22;50101;49.438;11.098;2023-02-28T14:08:59;20.40;47.80
38237;DHT22;50101;49.438;11.098;2023-02-28T14:11:33;20.40;47.70
38237;DHT22;50101;49.438;11.098;2023-02-28T14:14:01;20.40;47.70
38237;DHT22;50101;49.438;11.098;2023-02-28T14:16:49;20.40;47.70
38237;DHT22;50101;49.438;11.098;2023-02-28T14:19:22;20.40;47.80
38237;DHT22;50101;49.438;11.098;2023-02-28T14:22:12;20.50;47.80
38237;DHT22;50101;49.438;11.098;2023-02-28T14:25:12;20.50;47.80
38237;DHT22;50101;49.438;11.098;2023-02-28T14:31:07;20.50;48.00
38237;DHT22;50101;49.438;11.098;2023-02-28T14:33:48;20.50;48.10
38237;DHT22;50101;49.438;11.098;2023-02-28T14:36:27;20.60;48.20
38237;DHT22;50101;49.438;11.098;2023-02-28T14:39:00;20.60;48.40
38237;DHT22;50101;49.438;11.098;2023-02-28T14:41:35;20.60;48.60
38237;DHT22;50101;49.438;11.098;2023-02-28T14:44:18;20.60;49.20
38237;DHT22;50101;49.438;11.098;2023-02-28T14:46:48;20.70;48.60
38237;DHT22;50101;49.438;11.098;2023-02-28T14:51:49;20.70;48.70
38237;DHT22;50101;49.438;11.098;2023-02-28T14:54:20;20.80;48.70
38237;DHT22;50101;49.438;11.098;2023-02-28T14:56:50;20.80;48.80
38237;DHT22;50101;49.438;11.098;2023-02-28T14:59:27;20.80;48.70
38237;DHT22;50101;49.438;11.098;2023-02-28T15:04:53;20.80;49.00
38237;DHT22;50101;49.438;11.098;2023-02-28T15:07:23;20.90;49.20
38237;DHT22;50101;49.438;11.098;2023-02-28T15:10:27;20.90;48.90
38237;DHT22;50101;49.438;11.098;2023-02-28T15:13:02;20.90;49.40
38237;DHT22;50101;49.438;11.098;2023-02-28T15:15:53;20.90;49.40
38237;DHT22;50101;49.438;11.098;2023-02-28T15:18:51;21.00;49.50
38237;DHT22;50101;49.438;11.098;2023-02-28T15:21:21;21.00;49.70
38237;DHT22;50101;49.438;11.098;2023-02-28T15:26:28;21.00;49.90
38237;DHT22;50101;49.438;11.098;2023-02-28T15:29:08;21.00;49.60
38237;DHT22;50101;49.438;11.098;2023-02-28T15:31:44;21.00;50.00
38237;DHT22;50101;49.438;11.098;2023-02-28T15:37:26;20.80;49.40
38237;DHT22;50101;49.438;11.098;2023-02-28T15:39:54;20.70;49.10
38237;DHT22;50101;49.438;11.098;2023-02-28T15:42:23;20.70;49.80
38237;DHT22;50101;49.438;11.098;2023-02-28T15:44:50;20.70;50.10
38237;DHT22;50101;49.438;11.098;2023-02-28T15:47:23;20.70;49.70
38237;DHT22;50101;49.438;11.098;2023-02-28T15:50:00;20.70;49.00
38237;DHT22;50101;49.438;11.098;2023-02-28T15:52:38;20.70;49.60
38237;DHT22;50101;49.438;11.098;2023-02-28T15:55:11;20.70;49.60
38237;DHT22;50101;49.438;11.098;2023-02-28T15:57:40;20.60;49.40
38237;DHT22;50101;49.438;11.098;2023-02-28T16:00:15;20.60;49.40
38237;DHT22;50101;49.438;11.098;2023-02-28T16:02:42;20.50;48.90
38237;DHT22;50101;49.438;11.098;2023-02-28T16:07:40;20.50;48.90
38237;DHT22;50101;49.438;11.098;2023-02-28T16:10:10;20.50;49.00
38237;DHT22;50101;49.438;11.098;2023-02-28T16:12:38;20.50;49.00
38237;DHT22;50101;49.438;11.098;2023-02-28T16:15:18;20.50;49.10
38237;DHT22;50101;49.438;11.098;2023-02-28T16:17:46;20.50;49.00
38237;DHT22;50101;49.438;11.098;2023-02-28T16:22:44;20.40;49.10
38237;DHT22;50101;49.438;11.098;2023-02-28T16:25:13;20.40;49.00
38237;DHT22;50101;49.438;11.098;2023-02-28T16:27:40;20.40;49.20
38237;DHT22;50101;49.438;11.098;2023-02-28T16:30:17;20.40;49.20
38237;DHT22;50101;49.438;11.098;2023-02-28T16:32:46;20.40;49.50
38237;DHT22;50101;49.438;11.098;2023-02-28T16:35:12;20.40;49.30
38237;DHT22;50101;49.438;11.098;2023-02-28T16:37:40;20.40;49.30
38237;DHT22;50101;49.438;11.098;2023-02-28T16:40:17;20.40;49.40
38237;DHT22;50101;49.438;11.098;2023-02-28T16:42:45;20.30;49.40
38237;DHT22;50101;49.438;11.098;2023-02-28T16:45:31;20.30;49.30
38237;DHT22;50101;49.438;11.098;2023-02-28T16:47:58;20.40;48.80
38237;DHT22;50101;49.438;11.098;2023-02-28T16:50:27;20.30;49.20
38237;DHT22;50101;49.438;11.098;2023-02-28T16:52:55;20.40;49.30
38237;DHT22;50101;49.438;11.098;2023-02-28T16:55:23;20.30;49.40
38237;DHT22;50101;49.438;11.098;2023-02-28T16:57:56;20.30;49.30
38237;DHT22;50101;49.438;11.098;2023-02-28T17:00:24;20.30;49.30
38237;DHT22;50101;49.438;11.098;2023-02-28T17:02:51;20.30;49.40
38237;DHT22;50101;49.438;11.098;2023-02-28T17:05:18;20.40;49.80
38237;DHT22;50101;49.438;11.098;2023-02-28T17:07:45;20.40;49.80
38237;DHT22;50101;49.438;11.098;2023-02-28T17:10:15;20.40;49.80
38237;DHT22;50101;49.438;11.098;2023-02-28T17:12:42;20.30;49.80
38237;DHT22;50101;49.438;11.098;2023-02-28T17:15:11;20.30;49.70
38237;DHT22;50101;49.438;11.098;2023-02-28T17:17:38;20.30;49.70
38237;DHT22;50101;49.438;11.098;2023-02-28T17:20:12;20.40;49.60
38237;DHT22;50101;49.438;11.098;2023-02-28T17:22:39;20.40;49.50
38237;DHT22;50101;49.438;11.098;2023-02-28T17:25:07;20.30;49.40
38237;DHT22;50101;49.438;11.098;2023-02-28T17:27:34;20.30;49.30
38237;DHT22;50101;49.438;11.098;2023-02-28T17:30:02;20.30;49.30
38237;DHT22;50101;49.438;11.098;2023-02-28T17:32:29;20.30;49.30
38237;DHT22;50101;49.438;11.098;2023-02-28T17:34:56;20.40;49.30
38237;DHT22;50101;49.438;11.098;2023-02-28T17:37:22;20.30;49.20
38237;DHT22;50101;49.438;11.098;2023-02-28T17:39:49;20.40;49.20
38237;DHT22;50101;49.438;11.098;2023-02-28T17:42:16;20.40;49.10
38237;DHT22;50101;49.438;11.098;2023-02-28T17:44:42;20.40;49.20
38237;DHT22;50101;49.438;11.098;2023-02-28T17:47:11;20.40;49.10
38237;DHT22;50101;49.438;11.098;2023-02-28T17:49:38;20.40;49.20
38237;DHT22;50101;49.438;11.098;2023-02-28T17:52:04;20.40;48.90
38237;DHT22;50101;49.438;11.098;2023-02-28T17:54:31;20.40;49.20